createdAt,value
2018-02-22T00:02:04.709Z,83.07
2018-02-22T00:04:33.110Z,60.58
2018-02-22T00:07:01.768Z,61.90
2018-02-22T00:09:30.155Z,53.35
2018-02-22T00:11:58.551Z,57.60
2018-02-22T00:14:26.955Z,48.75
2018-02-22T00:16:55.354Z,52.40
2018-02-22T00:19:24.639Z,53.20
2018-02-22T00:21:53.048Z,50.05
2018-02-22T00:24:22.341Z,49.65
2018-02-22T00:26:52.175Z,51.63
2018-02-22T00:29:20.596Z,52.92
2018-02-22T00:31:49.008Z,47.35
2018-02-22T00:34:17.416Z,49.70
2018-02-22T00:36:45.828Z,47.97
2018-02-22T00:39:14.218Z,53.80
2018-02-22T00:41:42.631Z,43.30
2018-02-22T00:44:11.017Z,47.60
2018-02-22T00:46:40.225Z,47.97
2018-02-22T00:49:09.383Z,43.80
2018-02-22T00:51:37.770Z,52.50
2018-02-22T00:54:06.263Z,45.40
2018-02-22T00:56:34.668Z,42.30
2018-02-22T00:59:03.879Z,48.10
2018-02-22T01:01:32.302Z,40.58
2018-02-22T01:04:00.697Z,45.58
2018-02-22T01:06:29.562Z,43.67
2018-02-22T01:08:57.961Z,46.92
2018-02-22T01:11:26.363Z,48.95
2018-02-22T01:13:55.543Z,54.67
2018-02-22T01:16:23.988Z,41.20
2018-02-22T01:18:52.363Z,42.47
2018-02-22T01:21:20.758Z,41.00
2018-02-22T01:23:49.151Z,45.15
2018-02-22T01:26:17.722Z,45.95
2018-02-22T01:28:46.116Z,45.58
2018-02-22T01:31:14.654Z,43.25
2018-02-22T01:33:43.069Z,39.42
2018-02-22T01:36:11.467Z,46.70
2018-02-22T01:38:39.908Z,39.58
2018-02-22T01:41:08.371Z,40.53
2018-02-22T01:43:37.542Z,46.83
2018-02-22T01:46:05.933Z,46.60
2018-02-22T01:48:35.093Z,51.70
2018-02-22T01:51:03.521Z,44.45
2018-02-22T01:53:32.891Z,45.80
2018-02-22T01:56:01.402Z,46.83
2018-02-22T01:58:30.560Z,47.70
2018-02-22T02:00:58.958Z,48.67
2018-02-22T02:03:27.367Z,44.20
2018-02-22T02:05:55.774Z,45.72
2018-02-22T02:08:24.461Z,47.53
2018-02-22T02:10:52.851Z,48.22
2018-02-22T02:13:21.276Z,47.50
2018-02-22T02:15:50.608Z,51.15
2018-02-22T02:18:19.013Z,50.75
2018-02-22T02:20:47.486Z,43.63
2018-02-22T02:23:15.873Z,48.42
2018-02-22T02:25:44.270Z,45.95
2018-02-22T02:28:12.656Z,44.90
2018-02-22T02:30:41.042Z,43.45
2018-02-22T02:33:09.440Z,43.90
2018-02-22T02:35:38.632Z,47.60
2018-02-22T02:38:07.039Z,42.55
2018-02-22T02:40:36.404Z,45.45
2018-02-22T02:43:05.565Z,45.40
2018-02-22T02:45:34.000Z,47.05
2018-02-22T02:48:03.181Z,49.95
2018-02-22T02:50:31.748Z,44.05
2018-02-22T02:53:00.564Z,43.90
2018-02-22T02:55:28.948Z,40.35
2018-02-22T02:57:57.334Z,48.78
2018-02-22T03:00:26.508Z,45.95
2018-02-22T03:02:54.189Z,42.95
2018-02-22T03:05:23.436Z,42.75
2018-02-22T03:07:52.101Z,43.53
2018-02-22T03:10:20.508Z,40.20
2018-02-22T03:12:48.895Z,33.03
2018-02-22T03:15:17.288Z,35.65
2018-02-22T03:17:45.743Z,40.80
2018-02-22T03:20:14.223Z,38.42
2018-02-22T03:22:42.635Z,36.75
2018-02-22T03:25:11.018Z,37.10
2018-02-22T03:27:39.475Z,35.22
2018-02-22T03:30:07.912Z,41.10
2018-02-22T03:32:36.369Z,38.47
2018-02-22T03:35:04.758Z,41.50
2018-02-22T03:37:33.153Z,38.20
2018-02-22T03:40:02.379Z,36.60
2018-02-22T03:42:30.765Z,35.40
2018-02-22T03:44:59.178Z,32.70
2018-02-22T03:47:27.578Z,30.95
2018-02-22T03:49:56.171Z,37.53
2018-02-22T03:52:24.563Z,36.63
2018-02-22T03:54:53.743Z,34.35
2018-02-22T03:57:22.128Z,35.75
2018-02-22T03:59:51.397Z,35.42
2018-02-22T04:02:19.784Z,45.83
2018-02-22T04:04:48.207Z,40.85
2018-02-22T04:07:18.195Z,33.13
2018-02-22T04:09:47.395Z,37.50
2018-02-22T04:12:15.950Z,38.75
2018-02-22T04:14:44.380Z,39.63
2018-02-22T04:17:13.552Z,34.28
2018-02-22T04:19:41.966Z,35.10
2018-02-22T04:22:11.102Z,33.20
2018-02-22T04:24:39.504Z,26.77
2018-02-22T04:27:07.920Z,32.45
2018-02-22T04:29:37.067Z,31.95
2018-02-22T04:32:05.525Z,33.92
2018-02-22T04:34:33.923Z,33.15
2018-02-22T04:37:02.389Z,33.90
2018-02-22T04:39:30.834Z,34.67
2018-02-22T04:41:59.344Z,45.22
2018-02-22T04:44:27.747Z,36.33
2018-02-22T04:46:56.141Z,33.75
2018-02-22T04:49:24.640Z,28.75
2018-02-22T04:51:53.076Z,33.97
2018-02-22T04:54:21.519Z,34.63
2018-02-22T04:56:50.704Z,32.15
2018-02-22T04:59:19.129Z,33.92
2018-02-22T05:01:47.553Z,34.70
2018-02-22T05:04:16.131Z,36.50
2018-02-22T05:06:44.530Z,35.92
2018-02-22T05:09:13.689Z,33.85
2018-02-22T05:11:42.259Z,36.45
2018-02-22T05:14:10.648Z,32.55
2018-02-22T05:16:39.045Z,31.00
2018-02-22T05:19:07.443Z,31.62
2018-02-22T05:21:35.879Z,30.98
2018-02-22T05:24:04.266Z,35.72
2018-02-22T05:26:32.672Z,34.33
2018-02-22T05:29:01.052Z,30.95
2018-02-22T05:31:29.447Z,30.35
2018-02-22T05:33:57.922Z,31.20
2018-02-22T05:36:26.327Z,30.45
2018-02-22T05:38:55.510Z,32.53
2018-02-22T05:41:23.891Z,27.05
2018-02-22T05:43:52.270Z,32.05
2018-02-22T05:46:20.646Z,33.47
2018-02-22T05:48:49.821Z,31.70
2018-02-22T05:51:18.276Z,37.60
2018-02-22T05:53:46.659Z,39.05
2018-02-22T05:56:15.076Z,33.28
2018-02-22T05:58:44.353Z,31.67
2018-02-22T06:01:12.781Z,32.70
2018-02-22T06:03:42.017Z,30.60
2018-02-22T06:06:10.449Z,30.70
2018-02-22T06:08:38.837Z,29.83
2018-02-22T06:11:08.027Z,29.12
2018-02-22T06:13:36.852Z,28.17
2018-02-22T06:16:05.395Z,33.08
2018-02-22T06:18:33.783Z,41.45
2018-02-22T06:21:02.952Z,28.23
2018-02-22T06:23:32.019Z,29.87
2018-02-22T06:26:00.456Z,37.78
2018-02-22T06:28:28.861Z,31.33
2018-02-22T06:30:58.039Z,32.42
2018-02-22T06:33:26.455Z,37.28
2018-02-22T06:35:54.923Z,32.45
2018-02-22T06:38:23.520Z,32.55
2018-02-22T06:40:51.948Z,35.67
2018-02-22T06:43:20.395Z,29.83
2018-02-22T06:45:48.846Z,33.67
2018-02-22T06:48:18.042Z,33.45
2018-02-22T06:50:47.231Z,34.28
2018-02-22T06:53:16.433Z,36.10
2018-02-22T06:55:45.637Z,31.00
2018-02-22T06:58:15.031Z,33.85
2018-02-22T07:00:44.331Z,26.92
2018-02-22T07:03:12.715Z,29.42
2018-02-22T07:05:41.879Z,27.23
2018-02-22T07:08:10.295Z,32.58
2018-02-22T07:10:39.468Z,26.83
2018-02-22T07:13:08.034Z,28.10
2018-02-22T07:15:36.475Z,30.25
2018-02-22T07:18:04.936Z,28.02
2018-02-22T07:20:33.375Z,27.05
2018-02-22T07:23:02.070Z,31.52
2018-02-22T07:25:30.603Z,24.50
2018-02-22T07:27:58.987Z,28.58
2018-02-22T07:30:28.106Z,32.28
2018-02-22T07:32:56.490Z,27.13
2018-02-22T07:35:24.892Z,25.70
2018-02-22T07:37:53.312Z,26.27
2018-02-22T07:40:22.467Z,25.67
2018-02-22T07:42:51.000Z,23.80
2018-02-22T07:45:20.770Z,26.55
2018-02-22T07:47:49.320Z,24.48
2018-02-22T07:50:17.731Z,28.00
2018-02-22T07:52:46.238Z,24.98
2018-02-22T07:55:15.570Z,27.15
2018-02-22T07:57:43.978Z,23.00
2018-02-22T08:00:12.447Z,26.02
2018-02-22T08:02:40.912Z,26.50
2018-02-22T08:05:09.478Z,32.83
2018-02-22T08:07:38.652Z,21.73
2018-02-22T08:10:07.080Z,23.55
2018-02-22T08:12:35.716Z,21.65
2018-02-22T08:15:04.118Z,21.15
2018-02-22T08:17:33.293Z,27.37
2018-02-22T08:20:01.676Z,25.48
2018-02-22T08:22:30.096Z,24.92
2018-02-22T08:24:58.472Z,19.95
2018-02-22T08:27:26.860Z,20.73
2018-02-22T08:29:55.284Z,20.55
2018-02-22T08:32:23.667Z,20.88
2018-02-22T08:34:52.145Z,19.25
2018-02-22T08:37:20.604Z,21.65
2018-02-22T08:39:49.021Z,20.70
2018-02-22T08:42:17.451Z,21.52
2018-02-22T08:44:46.002Z,20.52
2018-02-22T08:47:14.430Z,19.58
2018-02-22T08:49:42.842Z,16.20
2018-02-22T08:52:11.255Z,19.85
2018-02-22T08:54:40.404Z,21.10
2018-02-22T08:57:08.854Z,19.35
2018-02-22T08:59:38.022Z,24.50
2018-02-22T09:02:06.429Z,20.35
2018-02-22T09:04:35.027Z,15.98
2018-02-22T09:07:03.513Z,17.75
2018-02-22T09:09:32.009Z,18.02
2018-02-22T09:12:01.107Z,15.73
2018-02-22T09:14:29.496Z,18.40
2018-02-22T09:16:57.919Z,15.30
2018-02-22T09:19:27.088Z,15.88
2018-02-22T09:21:55.744Z,15.38
2018-02-22T09:24:24.159Z,16.30
2018-02-22T09:26:52.543Z,26.20
2018-02-22T09:29:21.049Z,18.15
2018-02-22T09:31:50.295Z,11.15
2018-02-22T09:34:18.700Z,14.90
2018-02-22T09:36:47.100Z,16.30
2018-02-22T09:39:16.299Z,13.27
2018-02-22T09:41:45.475Z,16.40
2018-02-22T09:44:14.756Z,9.50
2018-02-22T09:46:43.175Z,14.95
2018-02-22T09:49:11.590Z,13.43
2018-02-22T09:51:39.991Z,14.98
2018-02-22T09:54:08.436Z,13.83
2018-02-22T09:56:37.596Z,14.03
2018-02-22T09:59:06.268Z,15.20
2018-02-22T10:01:34.681Z,16.10
2018-02-22T10:04:03.814Z,14.63
2018-02-22T10:06:32.204Z,17.27
2018-02-22T10:09:00.621Z,15.27
2018-02-22T10:11:29.040Z,16.43
2018-02-22T10:13:58.392Z,18.33
2018-02-22T10:16:26.812Z,16.43
2018-02-22T10:18:55.316Z,13.40
2018-02-22T10:21:24.497Z,16.80
2018-02-22T10:23:53.679Z,14.17
2018-02-22T10:26:22.080Z,16.80
2018-02-22T10:28:51.238Z,16.10
2018-02-22T10:31:19.642Z,16.23
2018-02-22T10:33:48.028Z,15.03
2018-02-22T10:36:17.252Z,14.73
2018-02-22T10:38:45.684Z,14.07
2018-02-22T10:41:14.087Z,16.10
2018-02-22T10:43:42.671Z,16.97
2018-02-22T10:46:11.079Z,15.13
2018-02-22T10:48:39.512Z,12.25
2018-02-22T10:51:08.100Z,14.33
2018-02-22T10:53:36.565Z,12.63
2018-02-22T10:56:05.009Z,15.30
2018-02-22T10:58:33.385Z,13.65
2018-02-22T11:01:07.289Z,14.90
2018-02-22T11:03:36.491Z,22.00
2018-02-22T11:06:04.886Z,11.80
2018-02-22T11:08:33.292Z,14.38
2018-02-22T11:11:01.819Z,15.80
2018-02-22T11:13:30.214Z,13.05
2018-02-22T11:15:59.351Z,15.00
2018-02-22T11:18:28.686Z,12.07
2018-02-22T11:23:33.354Z,16.02
2018-02-22T11:26:01.804Z,14.43
2018-02-22T11:28:30.222Z,15.63
2018-02-22T11:30:58.847Z,12.25
2018-02-22T11:33:27.981Z,13.75
2018-02-22T11:35:56.375Z,11.90
2018-02-22T11:38:24.789Z,14.65
2018-02-22T11:40:54.012Z,11.30
2018-02-22T11:43:23.181Z,12.18
2018-02-22T11:45:51.623Z,12.10
2018-02-22T11:48:20.296Z,15.18
2018-02-22T11:50:48.724Z,12.93
2018-02-22T11:53:17.106Z,13.60
2018-02-22T11:55:45.498Z,9.38
2018-02-22T11:58:13.910Z,13.45
2018-02-22T12:00:43.061Z,12.07
2018-02-22T12:03:11.471Z,11.30
2018-02-22T12:05:40.755Z,14.48
2018-02-22T12:08:09.165Z,14.43
2018-02-22T12:10:38.411Z,13.55
2018-02-22T12:13:06.808Z,14.95
2018-02-22T12:15:35.995Z,13.25
2018-02-22T12:18:04.391Z,12.20
2018-02-22T12:20:32.798Z,10.95
2018-02-22T12:23:01.220Z,10.15
2018-02-22T12:25:29.723Z,11.15
2018-02-22T12:27:58.144Z,9.60
2018-02-22T12:30:26.550Z,11.55
2018-02-22T12:32:54.960Z,11.80
2018-02-22T12:35:23.384Z,12.10
2018-02-22T12:37:51.799Z,9.60
2018-02-22T12:40:20.405Z,10.70
2018-02-22T12:42:48.872Z,11.85
2018-02-22T12:45:17.271Z,14.75
2018-02-22T12:47:45.672Z,9.40
2018-02-22T12:50:14.098Z,11.18
2018-02-22T12:52:43.265Z,10.13
2018-02-22T12:55:13.246Z,14.48
2018-02-22T12:57:41.685Z,9.75
2018-02-22T13:00:12.067Z,11.20
2018-02-22T13:02:40.757Z,12.57
2018-02-22T13:05:09.414Z,14.95
2018-02-22T13:07:37.824Z,9.85
2018-02-22T13:10:06.353Z,13.35
2018-02-22T13:12:35.577Z,12.07
2018-02-22T13:15:04.425Z,14.32
2018-02-22T13:17:32.954Z,14.87
2018-02-22T13:20:01.845Z,13.57
2018-02-22T13:22:31.681Z,11.82
2018-02-22T13:25:10.526Z,12.88
2018-02-22T13:27:39.425Z,14.10
2018-02-22T13:30:08.711Z,9.93
2018-02-22T13:32:54.998Z,10.83
2018-02-22T13:35:23.490Z,9.15
2018-02-22T13:40:54.937Z,10.98
2018-02-22T13:43:23.632Z,9.32
2018-02-22T13:45:52.208Z,13.90
2018-02-22T13:48:23.003Z,8.48
2018-02-22T13:51:05.428Z,10.07
2018-02-22T13:53:33.815Z,8.82
2018-02-22T13:56:03.638Z,12.07
2018-02-22T13:58:32.255Z,8.45
2018-02-22T14:01:18.603Z,8.82
2018-02-22T14:03:47.775Z,11.77
2018-02-22T14:06:16.359Z,10.65
2018-02-22T14:08:47.519Z,10.20
2018-02-22T14:11:15.988Z,10.93
2018-02-22T14:13:44.408Z,9.97
2018-02-22T14:16:12.830Z,11.10
2018-02-22T14:18:41.213Z,8.57
2018-02-22T14:21:09.717Z,11.90
2018-02-22T14:23:38.119Z,11.73
2018-02-22T14:26:06.569Z,11.20
2018-02-22T14:28:34.955Z,9.80
2018-02-22T14:31:03.374Z,11.77
2018-02-22T14:33:32.537Z,11.40
2018-02-22T14:36:00.975Z,10.73
2018-02-22T14:38:29.362Z,9.40
2018-02-22T14:40:57.867Z,12.80
2018-02-22T14:43:26.283Z,10.87
2018-02-22T14:45:54.681Z,10.87
2018-02-22T14:48:23.853Z,12.70
2018-02-22T14:50:52.284Z,13.63
2018-02-22T14:53:20.684Z,10.67
2018-02-22T14:55:49.171Z,13.67
2018-02-22T14:58:17.607Z,12.25
2018-02-22T15:00:52.477Z,15.30
2018-02-22T15:03:20.974Z,12.63
2018-02-22T15:05:49.374Z,12.60
2018-02-22T15:08:17.859Z,15.30
2018-02-22T15:10:46.414Z,12.48
2018-02-22T15:13:14.875Z,12.40
2018-02-22T15:15:43.404Z,14.10
2018-02-22T15:18:11.805Z,11.88
2018-02-22T15:20:40.244Z,15.65
2018-02-22T15:23:09.410Z,12.27
2018-02-22T15:25:49.324Z,13.82
2018-02-22T15:28:17.727Z,10.60
2018-02-22T15:30:46.317Z,13.50
2018-02-22T15:33:15.963Z,11.40
2018-02-22T15:35:44.805Z,14.07
2018-02-22T15:38:13.219Z,13.27
2018-02-22T15:40:42.385Z,13.73
2018-02-22T15:43:10.803Z,14.05
2018-02-22T15:45:40.057Z,14.63
2018-02-22T15:48:10.218Z,12.23
2018-02-22T15:50:38.624Z,12.90
2018-02-22T15:53:07.010Z,13.05
2018-02-22T15:55:35.403Z,13.00
2018-02-22T15:58:03.787Z,15.52
2018-02-22T16:00:32.227Z,15.85
2018-02-22T16:03:01.408Z,13.00
2018-02-22T16:05:29.803Z,14.68
2018-02-22T16:07:58.354Z,15.02
2018-02-22T16:10:26.889Z,11.65
2018-02-22T16:12:55.280Z,12.00
2018-02-22T16:15:23.704Z,16.15
2018-02-22T16:17:52.918Z,12.10
2018-02-22T16:20:21.324Z,14.25
2018-02-22T16:22:49.728Z,10.38
2018-02-22T16:25:18.169Z,14.52
2018-02-22T16:27:47.343Z,11.10
2018-02-22T16:30:15.895Z,11.07
2018-02-22T16:32:44.277Z,12.23
2018-02-22T16:35:12.656Z,11.82
2018-02-22T16:37:41.074Z,12.37
2018-02-22T16:40:09.476Z,13.38
2018-02-22T16:42:38.642Z,12.73
2018-02-22T16:45:07.686Z,11.95
2018-02-22T16:47:36.851Z,12.32
2018-02-22T16:50:05.307Z,11.12
2018-02-22T16:52:43.621Z,10.25
2018-02-22T16:55:12.052Z,16.00
2018-02-22T16:57:41.213Z,12.70
2018-02-22T17:00:10.620Z,11.25
2018-02-22T17:02:41.867Z,13.95
2018-02-22T17:05:10.516Z,12.32
2018-02-22T17:07:40.962Z,16.45
2018-02-22T17:10:09.456Z,15.18
2018-02-22T17:12:37.875Z,11.98
2018-02-22T17:15:07.023Z,14.30
2018-02-22T17:17:46.239Z,14.73
2018-02-22T17:20:15.369Z,11.90
2018-02-22T17:22:46.516Z,13.18
2018-02-22T17:25:15.640Z,13.10
2018-02-22T17:27:49.421Z,13.18
2018-02-22T17:30:25.827Z,13.45
2018-02-22T17:32:55.142Z,12.82
2018-02-22T17:38:27.028Z,16.98
2018-02-22T17:41:03.799Z,15.27
2018-02-22T17:43:33.118Z,15.45
2018-02-22T17:46:02.375Z,20.92
2018-02-22T17:48:31.752Z,20.50
2018-02-22T17:51:00.971Z,18.95
2018-02-22T17:53:29.558Z,17.35
2018-02-22T17:55:57.914Z,16.23
2018-02-22T17:58:26.396Z,15.90
2018-02-22T18:00:55.720Z,15.35
2018-02-22T18:03:24.626Z,14.10
2018-02-22T18:05:53.006Z,19.60
2018-02-22T18:08:22.240Z,19.17
2018-02-22T18:10:50.661Z,19.87
2018-02-22T18:13:19.072Z,17.35
2018-02-22T18:15:47.506Z,20.00
2018-02-22T18:18:15.914Z,25.05
2018-02-22T18:20:44.532Z,25.62
2018-02-22T18:23:13.722Z,33.95
2018-02-22T18:25:42.200Z,23.40
2018-02-22T18:28:10.753Z,33.13
2018-02-22T18:30:39.164Z,28.50
2018-02-22T18:33:07.597Z,25.10
2018-02-22T18:35:36.211Z,25.95
2018-02-22T18:38:04.873Z,25.27
2018-02-22T18:40:38.693Z,22.83
2018-02-22T18:43:12.708Z,25.05
2018-02-22T18:45:41.128Z,26.90
2018-02-22T18:48:09.562Z,26.65
2018-02-22T18:50:38.020Z,30.55
2018-02-22T18:53:06.528Z,27.92
2018-02-22T18:55:35.100Z,25.33
2018-02-22T18:58:03.515Z,25.08
2018-02-22T19:00:31.956Z,27.90
2018-02-22T19:03:00.416Z,26.15
2018-02-22T19:05:29.601Z,27.02
2018-02-22T19:07:58.019Z,29.90
2018-02-22T19:10:43.688Z,36.50
2018-02-22T19:13:12.143Z,26.80
2018-02-22T19:15:40.649Z,29.08
2018-02-22T19:18:09.105Z,38.97
2018-02-22T19:20:37.808Z,32.90
2018-02-22T19:23:15.648Z,31.90
2018-02-22T19:25:50.192Z,34.80
2018-02-22T19:28:19.560Z,27.60
2018-02-22T19:30:48.632Z,28.08
2018-02-22T19:33:17.232Z,31.55
2018-02-22T19:35:45.784Z,37.22
2018-02-22T19:38:14.480Z,33.45
2018-02-22T19:40:44.146Z,35.78
2018-02-22T19:43:12.821Z,37.65
2018-02-22T19:45:41.452Z,31.48
2018-02-22T19:48:09.920Z,41.67
2018-02-22T19:50:39.277Z,39.92
2018-02-22T19:53:18.765Z,35.58
2018-02-22T19:55:47.219Z,39.28
2018-02-22T19:58:15.928Z,48.47
2018-02-22T20:00:44.483Z,46.20
2018-02-22T20:03:13.200Z,54.45
2018-02-22T20:05:45.802Z,62.83
2018-02-22T20:08:15.409Z,54.17
2018-02-22T20:10:55.729Z,41.85
2018-02-22T20:13:24.339Z,63.30
2018-02-22T20:15:54.156Z,41.58
2018-02-22T20:18:22.951Z,39.30
2018-02-22T20:20:51.851Z,41.15
2018-02-22T20:23:20.354Z,41.22
2018-02-22T20:25:49.316Z,36.40
2018-02-22T20:28:18.568Z,39.85
2018-02-22T20:30:47.133Z,33.88
2018-02-22T20:33:19.333Z,43.53
2018-02-22T20:35:48.906Z,43.70
2018-02-22T20:38:17.476Z,44.65
2018-02-22T20:40:46.145Z,55.78
2018-02-22T20:43:15.593Z,44.97
2018-02-22T20:45:43.976Z,41.78
2018-02-22T20:48:14.205Z,47.85
2018-02-22T20:50:42.859Z,41.80
2018-02-22T20:56:07.839Z,45.72
2018-02-22T20:58:37.217Z,39.35
2018-02-22T21:01:05.742Z,34.65
2018-02-22T21:03:36.730Z,35.72
2018-02-22T21:06:05.139Z,32.83
2018-02-22T21:08:33.523Z,35.42
2018-02-22T21:11:01.949Z,30.37
2018-02-22T21:13:30.354Z,35.00
2018-02-22T21:15:58.793Z,35.30
2018-02-22T21:18:27.223Z,33.03
2018-02-22T21:20:55.677Z,33.13
2018-02-22T21:23:24.128Z,28.30
2018-02-22T21:25:53.273Z,36.28
2018-02-22T21:28:21.823Z,29.92
2018-02-22T21:30:50.224Z,26.95
2018-02-22T21:33:18.763Z,34.53
2018-02-22T21:35:48.142Z,30.85
2018-02-22T21:38:16.553Z,31.55
2018-02-22T21:40:45.042Z,29.50
2018-02-22T21:43:13.434Z,28.70
2018-02-22T21:45:41.836Z,27.58
2018-02-22T21:48:10.247Z,31.60
2018-02-22T21:50:39.441Z,29.77
2018-02-22T21:53:07.824Z,26.05
2018-02-22T21:55:37.430Z,31.75
2018-02-22T21:58:05.983Z,27.17
2018-02-22T22:00:34.394Z,29.17
2018-02-22T22:03:03.558Z,30.45
2018-02-22T22:05:31.948Z,28.80
2018-02-22T22:08:00.351Z,28.55
2018-02-22T22:10:29.524Z,26.37
2018-02-22T22:12:57.987Z,28.40
2018-02-22T22:15:27.183Z,25.77
2018-02-22T22:17:55.733Z,29.48
2018-02-22T22:20:24.132Z,29.70
2018-02-22T22:22:52.577Z,27.80
2018-02-22T22:25:20.984Z,28.08
2018-02-22T22:27:49.387Z,24.73
2018-02-22T22:30:17.775Z,26.67
2018-02-22T22:32:46.244Z,28.95
2018-02-22T22:35:14.650Z,26.37
2018-02-22T22:37:43.801Z,24.67
2018-02-22T22:40:12.376Z,26.70
2018-02-22T22:42:40.802Z,25.02
2018-02-22T22:45:09.216Z,23.17
2018-02-22T22:47:37.606Z,27.30
2018-02-22T22:50:06.015Z,21.70
2018-02-22T22:52:34.535Z,23.12
2018-02-22T22:55:02.984Z,21.35
2018-02-22T22:57:31.402Z,20.92
2018-02-22T23:00:00.801Z,28.38
2018-02-22T23:02:29.225Z,24.80
2018-02-22T23:04:57.862Z,29.65
2018-02-22T23:07:26.288Z,20.48
2018-02-22T23:09:54.783Z,22.20
2018-02-22T23:12:23.176Z,23.80
2018-02-22T23:14:51.608Z,21.75
2018-02-22T23:17:20.767Z,27.98
2018-02-22T23:19:49.162Z,22.95
2018-02-22T23:22:17.560Z,24.12
2018-02-22T23:24:46.808Z,24.87
2018-02-22T23:27:15.276Z,27.70
2018-02-22T23:29:43.731Z,25.65
2018-02-22T23:32:13.151Z,24.50
2018-02-22T23:34:41.566Z,18.48
2018-02-22T23:37:10.011Z,26.25
2018-02-22T23:39:39.188Z,24.60
2018-02-22T23:45:09.796Z,23.25
2018-02-22T23:47:39.059Z,22.25
2018-02-22T23:50:07.480Z,22.27
2018-02-22T23:52:35.943Z,20.75
2018-02-22T23:55:04.331Z,18.95
2018-02-22T23:57:32.754Z,21.27
